createdAt,value
2022-10-11T00:00:17.740Z,83.824000
2022-10-11T00:05:17.652Z,82.787500
2022-10-11T00:10:17.770Z,81.754167
2022-10-11T00:15:17.644Z,81.216667
2022-10-11T00:20:17.864Z,80.770833
2022-10-11T00:25:17.629Z,80.645833
2022-10-11T00:30:17.969Z,80.600000
2022-10-11T00:35:17.596Z,80.429167
2022-10-11T00:40:17.726Z,80.572000
2022-10-11T00:45:17.858Z,80.716667
2022-10-11T00:50:17.973Z,80.800000
2022-10-11T00:55:17.655Z,80.833333
2022-10-11T01:00:17.625Z,81.136000
2022-10-11T01:05:29.337Z,81.750000
2022-10-11T01:10:17.709Z,81.960000
2022-10-11T01:15:17.811Z,82.095833
2022-10-11T01:20:17.569Z,82.245833
2022-10-11T01:25:17.844Z,82.550000
2022-10-11T01:30:17.556Z,82.600000
2022-10-11T01:35:17.516Z,82.691667
2022-10-11T01:40:17.545Z,82.725000
2022-10-11T01:45:17.509Z,82.850000
2022-10-11T01:50:17.615Z,83.000000
2022-10-11T01:55:17.686Z,83.404167
2022-10-11T02:00:17.637Z,83.650000
2022-10-11T02:05:18.123Z,83.487500
2022-10-11T02:10:17.576Z,83.466667
2022-10-11T02:15:17.767Z,83.533333
2022-10-11T02:20:17.950Z,83.062500
2022-10-11T02:25:17.597Z,82.337500
2022-10-11T02:30:17.551Z,82.091667
2022-10-11T02:35:17.786Z,81.933333
2022-10-11T02:40:17.741Z,81.637500
2022-10-11T02:45:17.496Z,80.670833
2022-10-11T02:50:17.499Z,80.204167
2022-10-11T02:55:17.870Z,79.858333
2022-10-11T03:00:18.057Z,79.954167
2022-10-11T03:05:17.834Z,79.950000
2022-10-11T03:10:17.932Z,79.654167
2022-10-11T03:15:17.570Z,79.579167
2022-10-11T03:20:17.527Z,79.550000
2022-10-11T03:25:17.499Z,79.725000
2022-10-11T03:30:18.504Z,79.875000
2022-10-11T03:35:17.589Z,80.462500
2022-10-11T03:40:17.477Z,80.683333
2022-10-11T03:45:17.696Z,80.795833
2022-10-11T03:50:17.529Z,81.187500
2022-10-11T03:55:17.496Z,82.150000
2022-10-11T04:00:17.510Z,83.075000
2022-10-11T04:05:17.494Z,83.600000
2022-10-11T04:10:17.770Z,84.658333
2022-10-11T04:15:17.551Z,85.316667
2022-10-11T04:20:17.544Z,85.825000
2022-10-11T04:30:17.688Z,87.273913
2022-10-11T04:35:17.530Z,87.560000
2022-10-11T04:40:17.684Z,87.425000
2022-10-11T04:45:17.512Z,87.908333
2022-10-11T04:50:17.542Z,88.200000
2022-10-11T04:55:18.174Z,88.320833
2022-10-11T05:00:17.529Z,88.470833
2022-10-11T05:05:17.481Z,89.045833
2022-10-11T05:10:17.440Z,89.679167
2022-10-11T05:15:17.526Z,89.362500
2022-10-11T05:20:17.461Z,89.462500
2022-10-11T05:25:17.545Z,89.666667
2022-10-11T05:30:17.511Z,89.662500
2022-10-11T05:35:17.528Z,90.216667
2022-10-11T05:40:17.696Z,90.625000
2022-10-11T05:45:18.253Z,90.887500
2022-10-11T05:50:23.310Z,90.541667
2022-10-11T05:55:17.466Z,90.733333
2022-10-11T06:00:17.428Z,91.404000
2022-10-11T06:05:17.542Z,91.029167
2022-10-11T06:10:17.537Z,90.820833
2022-10-11T06:15:17.502Z,91.383333
2022-10-11T06:20:17.893Z,91.495833
2022-10-11T06:25:17.495Z,91.533333
2022-10-11T06:30:17.606Z,91.483333
2022-10-11T06:35:17.516Z,91.604167
2022-10-11T06:40:17.528Z,91.308333
2022-10-11T06:45:17.526Z,91.058333
2022-10-11T06:50:29.909Z,91.233333
2022-10-11T06:55:17.440Z,90.945833
2022-10-11T07:00:17.440Z,90.600000
2022-10-11T07:05:17.676Z,90.200000
2022-10-11T07:10:17.430Z,89.937500
2022-10-11T07:15:17.569Z,89.683333
2022-10-11T07:20:17.723Z,89.058333
2022-10-11T07:25:17.924Z,88.150000
2022-10-11T07:30:18.263Z,87.591667
2022-10-11T07:35:17.461Z,85.062500
2022-10-11T07:40:17.462Z,83.633333
2022-10-11T07:45:17.798Z,82.995833
2022-10-11T07:50:17.710Z,82.475000
2022-10-11T07:55:17.438Z,82.045833
2022-10-11T08:00:17.473Z,81.633333
2022-10-11T08:05:17.616Z,81.329167
2022-10-11T08:10:17.691Z,80.945833
2022-10-11T08:15:17.475Z,80.083333
2022-10-11T08:20:17.539Z,79.895833
2022-10-11T08:25:17.509Z,79.032000
2022-10-11T08:30:17.452Z,78.808333
2022-10-11T08:35:17.405Z,78.391667
2022-10-11T08:40:17.433Z,77.629167
2022-10-11T08:45:17.468Z,76.833333
2022-10-11T08:50:17.463Z,76.933333
2022-10-11T08:55:17.460Z,76.308333
2022-10-11T09:00:17.727Z,75.404167
2022-10-11T09:05:17.518Z,74.650000
2022-10-11T09:10:18.114Z,74.395833
2022-10-11T09:15:17.965Z,73.212500
2022-10-11T09:20:17.521Z,73.741667
2022-10-11T09:25:18.024Z,73.300000
2022-10-11T09:30:17.849Z,72.758333
2022-10-11T09:35:17.619Z,72.133333
2022-10-11T09:40:17.401Z,72.066667
2022-10-11T09:45:17.484Z,70.379167
2022-10-11T09:50:17.486Z,70.787500
2022-10-11T09:55:19.697Z,70.516667
2022-10-11T10:00:17.605Z,68.350000
2022-10-11T10:05:17.464Z,67.908333
2022-10-11T10:10:17.565Z,68.170833
2022-10-11T10:15:17.440Z,67.258333
2022-10-11T10:20:17.492Z,64.416667
2022-10-11T10:25:17.370Z,62.308333
2022-10-11T10:30:17.427Z,62.000000
2022-10-11T10:35:17.334Z,59.037500
2022-10-11T10:40:17.359Z,60.812500
2022-10-11T10:45:21.489Z,59.612500
2022-10-11T10:50:17.491Z,58.350000
2022-10-11T10:55:17.373Z,59.445833
2022-10-11T11:00:17.724Z,58.541667
2022-10-11T11:05:17.814Z,59.162500
2022-10-11T11:10:17.954Z,59.272000
2022-10-11T11:15:19.649Z,59.416667
2022-10-11T11:20:17.421Z,58.950000
2022-10-11T11:25:17.401Z,58.962500
2022-10-11T11:30:17.528Z,59.462500
2022-10-11T11:35:17.500Z,58.525000
2022-10-11T11:40:17.714Z,58.775000
2022-10-11T11:45:17.440Z,58.166667
2022-10-11T11:50:17.435Z,58.333333
2022-10-11T11:55:17.717Z,58.050000
2022-10-11T12:00:17.501Z,57.316000
2022-10-11T12:05:17.748Z,57.741667
2022-10-11T12:10:17.499Z,58.808333
2022-10-11T12:15:17.539Z,57.770833
2022-10-11T12:20:17.448Z,56.983333
2022-10-11T12:25:18.676Z,56.791667
2022-10-11T12:30:17.659Z,57.591667
2022-10-11T12:35:17.713Z,57.587500
2022-10-11T12:40:17.578Z,57.358333
2022-10-11T12:45:17.827Z,57.436000
2022-10-11T12:50:17.911Z,56.966667
2022-10-11T12:55:17.462Z,57.225000
2022-10-11T13:00:17.400Z,58.164000
2022-10-11T13:05:17.709Z,57.150000
2022-10-11T13:10:17.398Z,57.692000
2022-10-11T13:15:17.536Z,57.054167
2022-10-11T13:20:17.643Z,56.800000
2022-10-11T13:25:17.312Z,56.858333
2022-10-11T13:30:17.371Z,57.962500
2022-10-11T13:35:19.767Z,59.320833
2022-10-11T13:40:17.638Z,60.325000
2022-10-11T13:45:17.600Z,61.433333
2022-10-11T13:50:17.418Z,60.733333
2022-10-11T13:55:17.458Z,60.366667
2022-10-11T14:00:17.326Z,59.833333
2022-10-11T14:05:17.376Z,59.264000
2022-10-11T14:10:17.642Z,58.395833
2022-10-11T14:15:17.560Z,58.716000
2022-10-11T14:20:17.415Z,57.816667
2022-10-11T14:25:17.460Z,57.000000
2022-10-11T14:30:25.430Z,56.716667
2022-10-11T14:35:17.522Z,56.300000
2022-10-11T14:40:17.443Z,56.120833
2022-10-11T14:45:17.659Z,56.612500
2022-10-11T14:50:17.750Z,56.800000
2022-10-11T14:55:17.555Z,57.154167
2022-10-11T15:00:17.621Z,57.187500
2022-10-11T15:05:17.316Z,57.700000
2022-10-11T15:10:17.364Z,57.962500
2022-10-11T15:15:17.271Z,58.170833
2022-10-11T15:20:17.394Z,58.525000
2022-10-11T15:25:17.349Z,58.633333
2022-10-11T15:30:17.305Z,59.791667
2022-10-11T15:35:17.370Z,60.296000
2022-10-11T15:40:17.710Z,60.616667
2022-10-11T15:45:17.451Z,63.387500
2022-10-11T15:50:17.350Z,65.920833
2022-10-11T15:55:17.282Z,66.716667
2022-10-11T16:00:21.981Z,67.348000
2022-10-11T16:05:17.262Z,69.150000
2022-10-11T16:10:17.332Z,70.150000
2022-10-11T16:15:17.295Z,71.066667
2022-10-11T16:20:17.369Z,74.154167
2022-10-11T16:25:17.291Z,75.804167
2022-10-11T16:30:17.417Z,77.750000
2022-10-11T16:35:17.294Z,78.941667
2022-10-11T16:40:17.387Z,79.820833
2022-10-11T16:45:17.478Z,81.316667
2022-10-11T16:50:17.268Z,82.766667
2022-10-11T16:55:17.614Z,83.366667
2022-10-11T17:00:17.703Z,84.070833
2022-10-11T17:05:17.719Z,85.016000
2022-10-11T17:10:17.428Z,85.366667
2022-10-11T17:15:17.657Z,86.050000
2022-10-11T17:20:17.416Z,86.416667
2022-10-11T17:25:17.257Z,86.854167
2022-10-11T17:30:17.738Z,86.833333
2022-10-11T17:35:17.294Z,87.272000
2022-10-11T17:40:17.590Z,87.608333
2022-10-11T17:45:17.348Z,87.858333
2022-10-11T17:50:17.419Z,87.862500
2022-10-11T17:55:17.262Z,88.150000
2022-10-11T18:00:17.326Z,88.366667
2022-10-11T18:05:17.440Z,88.891667
2022-10-11T18:10:17.416Z,88.704000
2022-10-11T18:15:17.391Z,88.595833
2022-10-11T18:20:17.417Z,89.091667
2022-10-11T18:25:17.469Z,89.524000
2022-10-11T18:30:17.574Z,89.292000
2022-10-11T18:35:17.676Z,89.584000
2022-10-11T18:40:17.823Z,89.720833
2022-10-11T18:45:17.522Z,89.887500
2022-10-11T18:50:21.265Z,89.583333
2022-10-11T18:55:17.365Z,89.928000
2022-10-11T19:00:39.719Z,90.062500
2022-10-11T19:05:17.266Z,89.966667
2022-10-11T19:10:17.487Z,90.166667
2022-10-11T19:15:17.424Z,90.212500
2022-10-11T19:20:17.222Z,90.458333
2022-10-11T19:25:17.657Z,90.500000
2022-10-11T19:30:17.734Z,90.516667
2022-10-11T19:35:19.954Z,90.450000
2022-10-11T19:40:17.602Z,90.732000
2022-10-11T19:45:17.441Z,90.820833
2022-10-11T19:50:17.436Z,90.652000
2022-10-11T19:55:17.527Z,90.908333
2022-10-11T20:00:17.272Z,91.068000
2022-10-11T20:05:17.265Z,91.187500
2022-10-11T20:10:17.188Z,91.028000
2022-10-11T20:15:17.166Z,91.033333
2022-10-11T20:20:17.291Z,91.145833
2022-10-11T20:25:17.324Z,91.254167
2022-10-11T20:30:19.686Z,91.283333
2022-10-11T20:35:17.224Z,91.368000
2022-10-11T20:40:17.534Z,91.108333
2022-10-11T20:45:17.223Z,91.448000
2022-10-11T20:50:22.109Z,91.516667
2022-10-11T20:55:17.199Z,91.566667
2022-10-11T21:00:17.589Z,91.358333
2022-10-11T21:05:17.486Z,91.575000
2022-10-11T21:10:17.531Z,91.525000
2022-10-11T21:15:17.335Z,91.454167
2022-10-11T21:20:17.609Z,91.583333
2022-10-11T21:25:17.194Z,91.620833
2022-10-11T21:30:17.512Z,91.633333
2022-10-11T21:35:17.488Z,91.756000
2022-10-11T21:40:17.320Z,91.575000
2022-10-11T21:45:17.686Z,91.691667
2022-10-11T21:50:17.622Z,91.908333
2022-10-11T21:55:17.210Z,91.816667
2022-10-11T22:00:17.269Z,91.816000
2022-10-11T22:05:17.200Z,91.812500
2022-10-11T22:10:17.216Z,91.995833
2022-10-11T22:15:17.173Z,92.033333
2022-10-11T22:20:17.138Z,91.932000
2022-10-11T22:25:17.156Z,91.975000
2022-10-11T22:30:17.172Z,91.916667
2022-10-11T22:35:17.275Z,92.079167
2022-10-11T22:40:17.496Z,92.000000
2022-10-11T22:45:17.581Z,92.058333
2022-10-11T22:50:17.184Z,91.916667
2022-10-11T22:55:20.158Z,92.100000
2022-10-11T23:00:17.416Z,92.100000
2022-10-11T23:05:17.114Z,92.050000
2022-10-11T23:10:17.365Z,92.112500
2022-10-11T23:15:17.109Z,91.995833
2022-10-11T23:20:17.174Z,91.950000
2022-10-11T23:25:17.074Z,92.050000
2022-10-11T23:30:17.248Z,92.154167
2022-10-11T23:35:17.569Z,92.200000
2022-10-11T23:40:17.562Z,92.200000
2022-10-11T23:45:17.583Z,92.233333
2022-10-11T23:50:17.295Z,92.004167
2022-10-11T23:55:17.325Z,92.045833
